Time;durP1;ratioP1;P1;durP2;ratioP2;P2;SDS_P1;SDS_P2;PMS_P1;PMS_P2;Temp;Humidity;BMP_temperature;BMP_pressure;BME280_temperature;BME280_humidity;BME280_pressure;Samples;Min_cycle;Max_cycle;Signal;HPM_P1;HPM_P2
2021/10/20 00:00:23;;;;;;;4.22;3.10;;;;;;;9.07;100.00;96261.19;1031201;28;20018;-67
2021/10/20 00:00:53;;;;;;;3.70;3.00;;;;;;;9.06;100.00;96263.00;1036127;28;20022;-67
2021/10/20 00:01:24;;;;;;;5.38;3.28;;;;;;;9.02;100.00;96251.44;1036046;28;20855;-68
2021/10/20 00:01:54;;;;;;;6.07;3.45;;;;;;;9.01;100.00;96252.44;1030959;28;20026;-67
2021/10/20 00:02:25;;;;;;;4.18;3.38;;;;;;;9.04;100.00;96266.88;1031499;28;20061;-68
2021/10/20 00:02:55;;;;;;;4.70;3.47;;;;;;;8.96;100.00;96260.25;1027085;28;20023;-70
2021/10/20 00:03:26;;;;;;;5.13;3.33;;;;;;;8.97;100.00;96261.81;1027191;28;20030;-69
2021/10/20 00:03:56;;;;;;;3.60;2.95;;;;;;;8.92;100.00;96259.09;1027278;28;20053;-70
2021/10/20 00:04:27;;;;;;;3.88;3.17;;;;;;;8.95;100.00;96269.09;1031323;28;20104;-68
2021/10/20 00:04:57;;;;;;;4.90;3.30;;;;;;;8.93;100.00;96258.88;1039570;28;20021;-68
2021/10/20 00:05:28;;;;;;;5.13;3.15;;;;;;;9.06;100.00;96265.63;1043274;28;20033;-66
2021/10/20 00:05:58;;;;;;;4.80;3.22;;;;;;;9.09;100.00;96257.28;1039223;28;20017;-68
2021/10/20 00:06:29;;;;;;;5.28;3.42;;;;;;;8.97;100.00;96253.97;1039412;28;20024;-67
2021/10/20 00:06:59;;;;;;;4.07;2.63;;;;;;;8.71;100.00;96214.31;1035028;28;20034;-69
2021/10/20 00:07:30;;;;;;;6.40;2.88;;;;;;;9.02;100.00;96261.91;1031238;28;20014;-69
2021/10/20 00:08:03;;;;;;;5.28;2.88;;;;;;;9.04;100.00;96259.81;1034518;28;20026;-69
2021/10/20 00:08:33;;;;;;;4.35;3.15;;;;;;;9.01;100.00;96244.59;1027636;28;20030;-70
2021/10/20 00:09:04;;;;;;;5.03;3.53;;;;;;;8.90;100.00;96227.16;1027685;28;20305;-69
2021/10/20 00:09:35;;;;;;;4.93;3.50;;;;;;;9.05;100.00;96264.00;1027664;28;20018;-69
2021/10/20 00:10:05;;;;;;;5.00;3.45;;;;;;;9.03;100.00;96260.88;1023938;28;20062;-69
2021/10/20 00:10:36;;;;;;;4.90;3.33;;;;;;;8.94;100.00;96252.59;1023172;28;20485;-70
2021/10/20 00:11:07;;;;;;;8.15;3.22;;;;;;;8.91;100.00;96247.84;1027150;28;20221;-69
2021/10/20 00:11:37;;;;;;;5.95;3.40;;;;;;;8.95;100.00;96256.00;1027217;28;20019;-69
2021/10/20 00:12:08;;;;;;;3.50;3.20;;;;;;;8.93;100.00;96261.50;1031227;28;20022;-69
2021/10/20 00:12:38;;;;;;;4.55;3.78;;;;;;;8.86;100.00;96247.00;1035111;28;20021;-69
2021/10/20 00:13:09;;;;;;;4.93;3.13;;;;;;;8.87;100.00;96257.22;1031014;28;20542;-69
2021/10/20 00:13:39;;;;;;;5.63;3.50;;;;;;;8.87;100.00;96254.59;1031081;28;20026;-71
2021/10/20 00:14:10;;;;;;;4.10;3.22;;;;;;;8.87;100.00;96257.22;1034846;28;20021;-69
2021/10/20 00:14:41;;;;;;;3.00;2.63;;;;;;;8.88;100.00;96252.78;1031080;28;20026;-70
2021/10/20 00:15:12;;;;;;;3.20;2.90;;;;;;;8.85;100.00;96253.25;1030811;28;20018;-70
2021/10/20 00:15:43;;;;;;;5.20;3.20;;;;;;;8.88;100.00;96252.78;1022999;29;20683;-72
2021/10/20 00:16:13;;;;;;;5.13;3.33;;;;;;;8.82;100.00;96248.47;1027151;28;20274;-70
2021/10/20 00:16:44;;;;;;;5.57;3.33;;;;;;;8.89;100.00;96246.53;1034907;28;20022;-68
2021/10/20 00:17:14;;;;;;;4.82;3.03;;;;;;;8.91;100.00;96247.84;1035252;28;20010;-69
2021/10/20 00:17:45;;;;;;;4.82;3.30;;;;;;;8.90;100.00;96242.88;1026311;28;20027;-68
2021/10/20 00:18:16;;;;;;;4.28;3.10;;;;;;;8.85;100.00;96242.78;1026869;28;20108;-71
2021/10/20 00:18:48;;;;;;;4.07;3.05;;;;;;;8.84;100.00;96238.59;1031239;28;20082;-70
2021/10/20 00:19:19;;;;;;;4.43;3.50;;;;;;;8.90;100.00;96248.88;1026973;28;20322;-70
2021/10/20 00:19:55;;;;;;;5.35;3.38;;;;;;;8.89;100.00;96239.47;1026903;28;20278;-69
2021/10/20 00:20:27;;;;;;;4.00;3.13;;;;;;;8.89;100.00;96249.13;1029200;28;20031;-68
2021/10/20 00:20:58;;;;;;;6.55;3.10;;;;;;;8.91;100.00;96253.09;1032953;28;20273;-69
2021/10/20 00:21:29;;;;;;;3.05;2.72;;;;;;;9.00;100.00;96244.84;1039183;28;20274;-70
2021/10/20 00:22:00;;;;;;;5.10;3.15;;;;;;;8.99;100.00;96246.69;1034976;28;20299;-69
2021/10/20 00:22:31;;;;;;;4.38;3.03;;;;;;;8.94;100.00;96231.66;1027710;28;20813;-69
2021/10/20 00:23:01;;;;;;;3.35;3.05;;;;;;;8.93;100.00;96235.31;1031169;28;20654;-69
2021/10/20 00:23:32;;;;;;;4.88;2.70;;;;;;;8.93;100.00;96243.19;1026846;28;20022;-68
2021/10/20 00:24:02;;;;;;;4.53;2.97;;;;;;;8.84;100.00;96228.91;1031084;28;20049;-73
2021/10/20 00:24:33;;;;;;;7.60;3.30;;;;;;;8.88;100.00;96234.44;1022929;28;20026;-72
2021/10/20 00:25:04;;;;;;;5.05;3.30;;;;;;;8.82;100.00;96227.56;1022739;29;20027;-71
2021/10/20 00:25:35;;;;;;;4.88;3.40;;;;;;;8.82;100.00;96233.59;1023032;29;20019;-73
2021/10/20 00:26:06;;;;;;;4.00;2.90;;;;;;;8.84;100.00;96243.81;1030630;28;20301;-72
2021/10/20 00:26:37;;;;;;;4.93;3.20;;;;;;;8.80;100.00;96235.66;1030952;28;20023;-72
2021/10/20 00:27:07;;;;;;;4.68;3.10;;;;;;;8.73;100.00;96235.03;1030625;28;20018;-72
2021/10/20 00:27:38;;;;;;;3.72;3.20;;;;;;;8.68;100.00;96229.69;1030873;28;21030;-72
2021/10/20 00:28:08;;;;;;;6.05;3.20;;;;;;;8.69;100.00;96234.72;1026390;28;20030;-72
2021/10/20 00:28:39;;;;;;;3.70;3.03;;;;;;;8.61;100.00;96227.25;1026885;28;20018;-72
2021/10/20 00:29:09;;;;;;;4.78;3.35;;;;;;;8.67;100.00;96233.34;1022580;29;20023;-72
2021/10/20 00:29:40;;;;;;;5.55;3.28;;;;;;;8.01;100.00;96139.72;1027060;28;20106;-72
2021/10/20 00:30:11;;;;;;;6.80;3.40;;;;;;;8.60;100.00;96230.09;1034615;28;20100;-72
2021/10/20 00:30:41;;;;;;;5.30;3.28;;;;;;;8.58;100.00;96227.72;1034813;28;20510;-73
2021/10/20 00:31:12;;;;;;;4.22;3.20;;;;;;;8.56;100.00;96232.41;1034971;28;20276;-73
2021/10/20 00:31:42;;;;;;;3.50;3.20;;;;;;;8.55;100.00;96233.44;1031114;28;20158;-73
2021/10/20 00:32:13;;;;;;;5.28;3.60;;;;;;;8.54;100.00;96237.06;1027016;28;20090;-74
2021/10/20 00:32:44;;;;;;;4.63;3.25;;;;;;;8.52;100.00;96236.53;1026828;28;20440;-72
2021/10/20 00:33:14;;;;;;;3.88;3.50;;;;;;;8.45;100.00;96225.41;1027618;28;20019;-73
2021/10/20 00:33:45;;;;;;;5.38;3.15;;;;;;;8.44;100.00;96226.44;1034977;28;20041;-73
2021/10/20 00:34:15;;;;;;;8.07;3.10;;;;;;;8.48;100.00;96230.16;1034908;28;20029;-72
2021/10/20 00:34:46;;;;;;;4.75;3.13;;;;;;;8.47;100.00;96223.34;1031094;28;20022;-72
2021/10/20 00:35:16;;;;;;;4.15;3.38;;;;;;;8.57;100.00;96233.19;1023112;28;20027;-72
2021/10/20 00:35:47;;;;;;;3.65;3.13;;;;;;;8.57;100.00;96228.75;1023236;28;20019;-70
2021/10/20 00:36:17;;;;;;;6.97;3.70;;;;;;;8.49;100.00;96218.69;1027287;28;20027;-70
2021/10/20 00:36:48;;;;;;;4.95;3.55;;;;;;;8.56;100.00;96221.94;1023292;29;20023;-70
2021/10/20 00:37:18;;;;;;;4.20;3.30;;;;;;;8.56;100.00;96227.16;1026853;28;20070;-71
2021/10/20 00:37:49;;;;;;;3.65;2.83;;;;;;;8.55;100.00;96225.59;1026412;28;20027;-71
2021/10/20 00:38:19;;;;;;;6.45;3.47;;;;;;;8.53;100.00;96226.84;1022922;28;20012;-69
2021/10/20 00:38:49;;;;;;;4.57;3.30;;;;;;;8.45;100.00;96212.31;1030958;28;20015;-70
2021/10/20 00:39:20;;;;;;;4.35;3.10;;;;;;;8.52;100.00;96225.25;1031335;28;20088;-72
2021/10/20 00:39:50;;;;;;;12.85;3.97;;;;;;;8.42;100.00;96207.59;1031169;28;20026;-71
2021/10/20 00:40:21;;;;;;;3.53;3.17;;;;;;;8.48;100.00;96211.84;1035614;28;20017;-71
2021/10/20 00:40:52;;;;;;;4.97;3.53;;;;;;;8.51;100.00;96216.63;1035340;28;20033;-70
2021/10/20 00:41:27;;;;;;;4.50;3.22;;;;;;;8.51;100.00;96214.00;1033640;28;20097;-71
2021/10/20 00:41:58;;;;;;;6.72;3.40;;;;;;;8.54;100.00;96216.16;1032442;28;20324;-70
2021/10/20 00:42:28;;;;;;;3.90;3.35;;;;;;;8.52;100.00;96217.41;1032170;28;20324;-70
2021/10/20 00:43:01;;;;;;;4.95;3.00;;;;;;;8.57;100.00;96215.66;1035514;28;20486;-70
2021/10/20 00:43:32;;;;;;;5.40;2.67;;;;;;;8.62;100.00;96217.59;1035229;28;20265;-70
2021/10/20 00:44:03;;;;;;;7.22;3.50;;;;;;;8.59;100.00;96216.25;1023175;28;20019;-70
2021/10/20 00:44:44;;;;;;;4.55;3.28;;;;;;;8.55;100.00;96202.06;1023870;28;20129;-70
2021/10/20 00:45:15;;;;;;;4.65;3.08;;;;;;;8.53;100.00;96204.09;1027234;28;20389;-70
2021/10/20 00:45:45;;;;;;;3.65;2.95;;;;;;;8.59;100.00;96200.53;1028547;28;20262;-70
2021/10/20 00:46:26;;;;;;;4.22;3.17;;;;;;;8.57;100.00;96199.97;1027843;28;20043;-70
2021/10/20 00:46:57;;;;;;;3.63;2.85;;;;;;;8.61;100.00;96210.75;1027263;28;20015;-71
2021/10/20 00:47:27;;;;;;;6.38;3.30;;;;;;;8.55;100.00;96204.66;1032760;28;20257;-70
2021/10/20 00:47:58;;;;;;;3.65;2.83;;;;;;;8.59;100.00;96208.38;1031983;28;20041;-70
2021/10/20 00:48:28;;;;;;;6.68;3.42;;;;;;;8.57;100.00;96210.44;1027091;28;20027;-72
2021/10/20 00:48:58;;;;;;;3.95;3.08;;;;;;;8.53;100.00;96204.09;1027425;28;20373;-70
2021/10/20 00:49:29;;;;;;;4.07;3.30;;;;;;;8.54;100.00;96210.91;1027260;28;20010;-70
2021/10/20 00:49:59;;;;;;;5.18;3.53;;;;;;;8.48;100.00;96206.63;1031191;28;20030;-69
2021/10/20 00:50:30;;;;;;;6.43;3.20;;;;;;;8.55;100.00;96207.28;1031223;28;20101;-69
2021/10/20 00:51:00;;;;;;;4.57;3.38;;;;;;;8.59;100.00;96208.38;1023400;28;20047;-71
2021/10/20 00:51:31;;;;;;;7.45;3.45;;;;;;;8.63;100.00;96209.50;1027355;28;20031;-70
2021/10/20 00:52:01;;;;;;;4.50;3.30;;;;;;;8.60;100.00;96206.56;1031215;28;20034;-70
2021/10/20 00:52:32;;;;;;;5.93;4.00;;;;;;;8.61;100.00;96210.75;1031367;28;20077;-67
2021/10/20 00:53:03;;;;;;;5.40;3.13;;;;;;;8.56;100.00;96198.41;1035546;28;20125;-70
2021/10/20 00:53:33;;;;;;;4.00;2.97;;;;;;;8.61;100.00;96202.91;1035330;28;20105;-70
2021/10/20 00:54:04;;;;;;;4.97;3.15;;;;;;;8.65;100.00;96204.81;1031079;28;20077;-69
2021/10/20 00:54:35;;;;;;;4.90;3.38;;;;;;;8.67;100.00;96199.34;1031537;28;20033;-69
2021/10/20 00:55:05;;;;;;;4.30;3.42;;;;;;;8.59;100.00;96197.94;1027272;28;20044;-70
2021/10/20 00:55:36;;;;;;;4.00;3.33;;;;;;;8.58;100.00;96201.56;1027409;28;20794;-69
2021/10/20 00:56:06;;;;;;;6.65;3.28;;;;;;;8.53;100.00;96201.50;1031070;28;20045;-68
2021/10/20 00:56:37;;;;;;;4.55;3.35;;;;;;;8.58;100.00;96206.78;1027800;28;20019;-68
2021/10/20 00:57:07;;;;;;;5.53;3.17;;;;;;;8.62;100.00;96199.28;1027718;28;20077;-69
2021/10/20 00:57:38;;;;;;;4.72;3.40;;;;;;;8.61;100.00;96195.84;1031297;28;20034;-68
2021/10/20 00:58:09;;;;;;;3.05;2.67;;;;;;;8.65;100.00;96202.22;1034891;28;20129;-68
2021/10/20 00:58:39;;;;;;;6.00;3.83;;;;;;;8.57;100.00;96186.91;1027512;28;20453;-68
2021/10/20 00:59:10;;;;;;;3.67;2.90;;;;;;;8.61;100.00;96189.81;1023136;29;20031;-67
2021/10/20 00:59:40;;;;;;;3.72;3.30;;;;;;;8.50;100.00;96183.66;1023654;29;20042;-68
2021/10/20 01:00:11;;;;;;;3.83;3.03;;;;;;;8.56;100.00;96200.22;1026910;28;20034;-68
2021/10/20 01:00:41;;;;;;;4.13;3.22;;;;;;;8.53;100.00;96198.88;1027193;28;20101;-68
2021/10/20 01:01:12;;;;;;;5.22;3.03;;;;;;;8.54;100.00;96195.22;1031645;28;20041;-67
2021/10/20 01:01:43;;;;;;;4.97;3.47;;;;;;;8.52;100.00;96184.22;1031309;28;20404;-68
2021/10/20 01:02:13;;;;;;;5.28;3.10;;;;;;;8.54;100.00;96189.19;1031200;28;20046;-67
2021/10/20 01:02:44;;;;;;;3.45;3.00;;;;;;;8.51;100.00;96180.00;1035458;28;20026;-67
2021/10/20 01:03:15;;;;;;;4.00;3.30;;;;;;;8.59;100.00;96182.22;1035223;28;20036;-68
2021/10/20 01:03:45;;;;;;;5.85;3.40;;;;;;;8.49;100.00;96172.41;1031428;28;20272;-70
2021/10/20 01:04:16;;;;;;;4.93;3.15;;;;;;;8.37;100.00;96152.56;1023109;29;20548;-68
2021/10/20 01:04:49;;;;;;;3.95;3.05;;;;;;;8.58;100.00;96174.59;1023141;28;20035;-68
2021/10/20 01:05:19;;;;;;;4.15;3.05;;;;;;;8.49;100.00;96171.63;1028307;28;20030;-69
2021/10/20 01:05:50;;;;;;;4.80;3.50;;;;;;;8.46;100.00;96177.31;1027832;28;20640;-68
2021/10/20 01:06:20;;;;;;;4.40;3.30;;;;;;;8.47;100.00;96173.66;1027173;28;20026;-68
2021/10/20 01:06:51;;;;;;;5.95;3.20;;;;;;;8.55;100.00;96181.13;1027497;28;20031;-68
2021/10/20 01:07:23;;;;;;;5.22;3.20;;;;;;;8.50;100.00;96176.59;1027460;28;20054;-68
2021/10/20 01:07:53;;;;;;;4.95;3.22;;;;;;;8.57;100.00;96183.50;1026884;28;20277;-68
2021/10/20 01:08:24;;;;;;;4.80;3.22;;;;;;;8.55;100.00;96169.84;1027632;28;20376;-69
2021/10/20 01:08:54;;;;;;;3.88;2.88;;;;;;;8.56;100.00;96177.47;1027030;28;20035;-68
2021/10/20 01:09:24;;;;;;;7.47;3.17;;;;;;;8.54;100.00;96173.50;1027637;28;20034;-68
2021/10/20 01:09:55;;;;;;;3.78;3.20;;;;;;;8.45;100.00;96175.72;1023083;28;20143;-68
2021/10/20 01:10:25;;;;;;;3.47;2.65;;;;;;;8.55;100.00;96175.91;1022864;29;20031;-68
2021/10/20 01:10:56;;;;;;;4.47;3.28;;;;;;;8.55;100.00;96170.66;1027380;28;20031;-68
2021/10/20 01:11:26;;;;;;;5.93;3.03;;;;;;;8.57;100.00;96165.97;1027158;28;20030;-68
2021/10/20 01:11:57;;;;;;;2.78;2.55;;;;;;;8.59;100.00;96179.63;1031328;28;20473;-68
2021/10/20 01:12:28;;;;;;;4.75;3.38;;;;;;;8.56;100.00;96169.63;1031204;28;20030;-68
2021/10/20 01:12:58;;;;;;;3.83;3.30;;;;;;;8.48;100.00;96164.78;1022936;29;20039;-67
2021/10/20 01:13:29;;;;;;;4.63;3.20;;;;;;;8.47;100.00;96160.59;1031296;28;20026;-69
2021/10/20 01:13:59;;;;;;;5.07;3.25;;;;;;;8.45;100.00;96166.06;1030945;28;20025;-66
2021/10/20 01:14:30;;;;;;;5.25;3.30;;;;;;;8.42;100.00;96163.16;1035021;28;20500;-68
2021/10/20 01:15:02;;;;;;;5.10;3.40;;;;;;;8.41;100.00;96175.41;1031424;28;20420;-68
2021/10/20 01:15:33;;;;;;;4.78;2.88;;;;;;;8.41;100.00;96170.16;1031206;28;20054;-68
2021/10/20 01:16:04;;;;;;;4.32;3.17;;;;;;;8.43;100.00;96169.94;1035216;28;20344;-67
2021/10/20 01:16:34;;;;;;;4.45;3.08;;;;;;;8.47;100.00;96163.19;1036041;28;20033;-67
2021/10/20 01:17:04;;;;;;;5.20;3.28;;;;;;;8.40;100.00;96157.34;1034899;28;20036;-67
2021/10/20 01:17:35;;;;;;;6.25;3.20;;;;;;;8.46;100.00;96161.63;1027702;28;20030;-68
2021/10/20 01:18:05;;;;;;;3.55;2.45;;;;;;;8.43;100.00;96164.72;1030269;28;20145;-68
2021/10/20 01:18:36;;;;;;;4.65;2.80;;;;;;;8.49;100.00;96158.53;1027069;28;20043;-70
2021/10/20 01:19:06;;;;;;;4.78;3.38;;;;;;;8.39;100.00;96153.94;1030978;28;20030;-68
2021/10/20 01:19:37;;;;;;;7.03;3.20;;;;;;;8.35;100.00;96154.59;1023073;29;20023;-68
2021/10/20 01:20:08;;;;;;;4.20;3.10;;;;;;;8.39;100.00;96159.16;1023227;29;20027;-68
2021/10/20 01:20:38;;;;;;;5.05;3.35;;;;;;;8.36;100.00;96162.22;1023192;28;20032;-68
2021/10/20 01:21:15;;;;;;;5.30;3.90;;;;;;;8.34;100.00;96153.03;1023391;28;20030;-68
2021/10/20 01:21:46;;;;;;;4.03;2.92;;;;;;;8.29;100.00;96156.38;1033314;28;20026;-68
2021/10/20 01:22:16;;;;;;;4.95;3.05;;;;;;;8.24;100.00;96145.81;1030995;28;20746;-67
2021/10/20 01:22:47;;;;;;;4.38;2.78;;;;;;;8.24;100.00;96154.44;1022888;29;20393;-67
2021/10/20 01:23:19;;;;;;;7.97;3.67;;;;;;;8.27;100.00;96158.41;1031034;28;20438;-68
2021/10/20 01:23:50;;;;;;;5.13;2.80;;;;;;;8.25;100.00;96150.81;1027037;28;20039;-68
2021/10/20 01:24:21;;;;;;;5.72;3.08;;;;;;;8.20;100.00;96148.13;1031177;28;20270;-68
2021/10/20 01:24:52;;;;;;;3.72;3.10;;;;;;;8.21;100.00;96154.91;1022832;28;20023;-68
2021/10/20 01:25:22;;;;;;;4.00;2.83;;;;;;;8.18;100.00;96144.97;1022906;29;20055;-70
2021/10/20 01:25:53;;;;;;;5.60;3.53;;;;;;;8.19;100.00;96154.38;1031161;28;20022;-70
2021/10/20 01:26:23;;;;;;;5.90;3.00;;;;;;;8.19;100.00;96145.75;1031112;28;20037;-68
2021/10/20 01:26:54;;;;;;;5.60;3.13;;;;;;;8.18;100.00;96144.97;1031081;28;20590;-67
2021/10/20 01:27:25;;;;;;;4.32;3.38;;;;;;;8.18;100.00;96149.38;1027172;28;20098;-68
2021/10/20 01:27:56;;;;;;;5.38;3.10;;;;;;;8.20;100.00;96142.09;1026332;28;20803;-66
2021/10/20 01:28:27;;;;;;;3.83;2.92;;;;;;;8.12;100.00;96137.28;1031194;28;20030;-68
2021/10/20 01:29:00;;;;;;;3.35;2.72;;;;;;;8.25;100.00;96150.03;1031678;28;20270;-68
2021/10/20 01:29:31;;;;;;;4.60;2.80;;;;;;;8.23;100.00;96145.03;1035528;28;20506;-68
2021/10/20 01:30:01;;;;;;;5.60;3.50;;;;;;;8.20;100.00;96152.56;1039899;28;20279;-67
2021/10/20 01:30:32;;;;;;;3.67;3.20;;;;;;;8.24;100.00;96149.22;1043163;28;20492;-68
2021/10/20 01:31:02;;;;;;;4.97;3.47;;;;;;;8.24;100.00;96149.22;1035271;28;20045;-67
2021/10/20 01:31:33;;;;;;;4.38;3.30;;;;;;;8.20;100.00;96139.47;1034873;28;20048;-67
2021/10/20 01:32:05;;;;;;;4.05;3.10;;;;;;;8.21;100.00;96133.22;1030938;28;20027;-68
2021/10/20 01:32:35;;;;;;;4.95;3.17;;;;;;;8.29;100.00;96140.69;1031537;28;20029;-70
2021/10/20 01:33:06;;;;;;;5.75;3.20;;;;;;;8.26;100.00;96139.31;1028925;28;20285;-69
2021/10/20 01:33:36;;;;;;;7.00;3.10;;;;;;;8.26;100.00;96144.56;1026911;28;20026;-68
2021/10/20 01:34:07;;;;;;;3.78;3.03;;;;;;;8.25;100.00;96142.97;1027030;28;20027;-68
2021/10/20 01:34:37;;;;;;;4.15;3.45;;;;;;;8.24;100.00;96144.00;1027105;28;20472;-67
2021/10/20 01:35:08;;;;;;;4.13;3.08;;;;;;;8.23;100.00;96146.84;1023050;28;20409;-68
2021/10/20 01:35:38;;;;;;;4.43;3.30;;;;;;;8.04;100.00;96107.06;1030993;28;20089;-68
2021/10/20 01:36:09;;;;;;;3.78;3.20;;;;;;;8.11;100.00;96123.38;1030901;28;20042;-68
2021/10/20 01:36:40;;;;;;;6.07;2.97;;;;;;;8.16;100.00;96141.78;1035093;28;20131;-68
2021/10/20 01:37:10;;;;;;;5.22;3.17;;;;;;;8.06;100.00;96122.53;1026933;28;20045;-68
2021/10/20 01:37:41;;;;;;;5.07;3.67;;;;;;;8.08;100.00;96129.13;1026322;28;20081;-66
2021/10/20 01:38:11;;;;;;;4.72;3.05;;;;;;;8.12;100.00;96137.28;1026790;28;20030;-68
2021/10/20 01:38:41;;;;;;;6.72;3.55;;;;;;;8.02;100.00;96124.84;1030895;28;20061;-68
2021/10/20 01:39:12;;;;;;;4.75;3.20;;;;;;;8.11;100.00;96133.06;1026766;28;20035;-67
2021/10/20 01:39:46;;;;;;;3.95;3.40;;;;;;;8.10;100.00;96126.25;1022167;29;20023;-68
2021/10/20 01:40:16;;;;;;;6.68;3.00;;;;;;;8.09;100.00;96133.31;1027256;28;20254;-68
2021/10/20 01:40:47;;;;;;;4.63;3.45;;;;;;;8.06;100.00;96130.38;1028143;28;20027;-68
2021/10/20 01:41:17;;;;;;;5.45;3.20;;;;;;;8.01;100.00;96136.28;1034986;28;20033;-67
2021/10/20 01:41:48;;;;;;;4.35;3.25;;;;;;;7.95;100.00;96121.59;1026835;28;20029;-68
2021/10/20 01:42:18;;;;;;;4.50;3.03;;;;;;;8.00;100.00;96137.31;1023021;28;20015;-68
2021/10/20 01:42:49;;;;;;;4.70;3.35;;;;;;;7.89;100.00;96117.28;1026859;28;20022;-68
2021/10/20 01:43:19;;;;;;;5.00;3.50;;;;;;;7.96;100.00;96133.59;1027076;28;20023;-68
2021/10/20 01:43:50;;;;;;;3.97;3.25;;;;;;;8.05;100.00;96129.59;1025202;28;20030;-66
2021/10/20 01:44:22;;;;;;;4.75;3.65;;;;;;;8.01;100.00;96120.59;1019961;28;20027;-66
2021/10/20 01:44:53;;;;;;;6.30;3.90;;;;;;;8.03;100.00;96129.03;1018716;28;20095;-68
2021/10/20 01:45:23;;;;;;;3.30;3.00;;;;;;;8.00;100.00;96121.66;1023047;28;20405;-68
2021/10/20 01:45:54;;;;;;;4.88;3.33;;;;;;;8.03;100.00;96123.78;1027137;28;20019;-68
2021/10/20 01:46:24;;;;;;;3.50;3.20;;;;;;;8.01;100.00;96128.44;1032481;28;20026;-68
2021/10/20 01:46:56;;;;;;;6.07;3.78;;;;;;;8.03;100.00;96121.19;1030879;28;20022;-69
2021/10/20 01:47:27;;;;;;;7.18;3.60;;;;;;;8.02;100.00;96115.16;1026756;28;20027;-70
2021/10/20 01:47:57;;;;;;;7.25;3.50;;;;;;;8.09;100.00;96125.47;1021317;29;20290;-69
2021/10/20 01:48:28;;;;;;;4.32;3.13;;;;;;;8.13;100.00;96121.34;1024707;28;20042;-69
2021/10/20 01:48:58;;;;;;;3.75;3.20;;;;;;;8.09;100.00;96117.63;1022991;29;20027;-70
2021/10/20 01:49:29;;;;;;;3.85;3.08;;;;;;;8.11;100.00;96125.22;1026596;28;20015;-69
2021/10/20 01:49:59;;;;;;;3.67;3.17;;;;;;;8.03;100.00;96110.72;1026819;28;20023;-69
2021/10/20 01:50:30;;;;;;;3.53;2.65;;;;;;;8.14;100.00;96128.16;1026245;28;20085;-69
2021/10/20 01:51:00;;;;;;;5.82;3.35;;;;;;;8.04;100.00;96104.47;1025270;28;20039;-69
2021/10/20 01:51:31;;;;;;;5.55;3.20;;;;;;;8.11;100.00;96118.16;1026663;28;20599;-69
2021/10/20 01:52:01;;;;;;;6.03;3.10;;;;;;;8.07;100.00;96122.28;1030914;28;20022;-69
2021/10/20 01:52:31;;;;;;;5.85;3.38;;;;;;;8.03;100.00;96115.94;1034548;28;20072;-68
2021/10/20 01:53:02;;;;;;;7.63;3.42;;;;;;;7.98;100.00;96108.84;1031031;28;20022;-69
2021/10/20 01:53:33;;;;;;;4.20;3.40;;;;;;;8.06;100.00;96118.09;1030849;28;20049;-69
2021/10/20 01:54:04;;;;;;;3.42;2.85;;;;;;;8.05;100.00;96116.53;1026681;28;20528;-71
2021/10/20 01:54:35;;;;;;;4.18;3.35;;;;;;;8.07;100.00;96114.44;1026998;28;20262;-69
2021/10/20 01:55:06;;;;;;;4.05;3.25;;;;;;;8.11;100.00;96118.16;1030759;28;20273;-70
2021/10/20 01:55:37;;;;;;;5.10;3.13;;;;;;;8.12;100.00;96108.53;1027307;28;20042;-70
2021/10/20 01:56:08;;;;;;;3.50;2.85;;;;;;;8.10;100.00;96113.19;1026714;28;20289;-70
2021/10/20 01:56:38;;;;;;;6.35;3.03;;;;;;;8.10;100.00;96111.34;1026586;28;20030;-71
2021/10/20 01:57:08;;;;;;;4.32;3.38;;;;;;;8.08;100.00;96110.81;1030798;28;20026;-71
2021/10/20 01:57:39;;;;;;;4.03;2.90;;;;;;;8.08;100.00;96102.16;1026150;28;20052;-69
2021/10/20 01:58:09;;;;;;;5.78;3.20;;;;;;;8.06;100.00;96110.25;1026431;28;20031;-71
2021/10/20 01:58:40;;;;;;;5.63;2.80;;;;;;;8.03;100.00;96108.13;1026743;28;20054;-72
2021/10/20 01:59:11;;;;;;;4.10;2.83;;;;;;;8.03;100.00;96105.50;1022912;28;20640;-71
2021/10/20 01:59:41;;;;;;;3.38;2.70;;;;;;;8.05;100.00;96106.06;1022709;29;20031;-71
2021/10/20 02:00:12;;;;;;;5.03;3.15;;;;;;;8.00;100.00;96096.31;1022899;28;20049;-71
2021/10/20 02:00:42;;;;;;;4.53;3.05;;;;;;;8.04;100.00;96109.69;1026623;28;20110;-71
2021/10/20 02:01:13;;;;;;;5.20;3.28;;;;;;;8.02;100.00;96109.16;1027180;28;20022;-71
2021/10/20 02:01:43;;;;;;;5.68;3.20;;;;;;;8.02;100.00;96104.72;1030665;28;20030;-70
2021/10/20 02:02:15;;;;;;;6.28;3.17;;;;;;;8.02;100.00;96106.53;1030823;28;20033;-71
2021/10/20 02:02:46;;;;;;;6.25;3.13;;;;;;;8.04;100.00;96101.84;1035095;28;20029;-70
2021/10/20 02:03:16;;;;;;;4.72;3.30;;;;;;;8.05;100.00;96103.44;1034939;28;20638;-71
2021/10/20 02:03:46;;;;;;;3.53;3.22;;;;;;;8.02;100.00;96103.91;1034726;28;20076;-70
2021/10/20 02:04:17;;;;;;;5.88;3.13;;;;;;;8.02;100.00;96106.53;1035020;28;20069;-70
2021/10/20 02:04:48;;;;;;;5.82;3.22;;;;;;;8.06;100.00;96094.56;1034459;28;20102;-71
2021/10/20 02:05:18;;;;;;;5.38;3.10;;;;;;;8.03;100.00;96100.28;1030764;28;20045;-70
2021/10/20 02:05:49;;;;;;;4.38;3.08;;;;;;;8.03;100.00;96100.28;1022824;28;20285;-71
2021/10/20 02:06:19;;;;;;;4.18;3.05;;;;;;;7.96;100.00;96089.97;1026820;28;20134;-71
2021/10/20 02:06:50;;;;;;;4.13;2.72;;;;;;;7.97;100.00;96086.31;1030621;28;20022;-71
2021/10/20 02:07:20;;;;;;;5.07;3.13;;;;;;;8.04;100.00;96102.63;1030689;28;20042;-70
2021/10/20 02:07:51;;;;;;;7.20;3.13;;;;;;;8.06;100.00;96094.56;1030004;28;20034;-69
2021/10/20 02:08:24;;;;;;;4.28;2.70;;;;;;;7.94;100.00;96086.78;1030997;28;20027;-71
2021/10/20 02:08:55;;;;;;;4.05;3.13;;;;;;;7.91;100.00;96087.25;1034601;28;20024;-71
2021/10/20 02:09:25;;;;;;;5.22;3.20;;;;;;;7.97;100.00;96096.00;1027174;28;20250;-71
2021/10/20 02:09:56;;;;;;;4.70;2.85;;;;;;;7.97;100.00;96096.00;1026662;28;20035;-70
2021/10/20 02:10:26;;;;;;;4.78;2.85;;;;;;;7.96;100.00;96099.63;1026939;28;20027;-70
2021/10/20 02:10:56;;;;;;;4.35;3.22;;;;;;;7.84;100.00;96088.44;1030862;28;20696;-72
2021/10/20 02:11:27;;;;;;;3.33;2.95;;;;;;;7.92;100.00;96096.72;1030651;28;20520;-71
2021/10/20 02:11:57;;;;;;;3.95;2.83;;;;;;;7.82;100.00;96082.69;1026867;28;20014;-72
2021/10/20 02:12:28;;;;;;;3.55;2.90;;;;;;;7.96;100.00;96089.97;1023261;29;20761;-72
2021/10/20 02:12:58;;;;;;;3.80;2.97;;;;;;;7.96;100.00;96100.44;1026891;28;20053;-71
2021/10/20 02:13:29;;;;;;;3.55;2.85;;;;;;;7.93;100.00;96094.88;1030894;28;20014;-73
2021/10/20 02:14:00;;;;;;;4.43;3.10;;;;;;;7.93;100.00;96100.09;1030920;28;20026;-71
2021/10/20 02:14:30;;;;;;;3.58;3.10;;;;;;;7.85;100.00;96088.22;1030888;28;20034;-71
2021/10/20 02:15:01;;;;;;;7.57;3.28;;;;;;;7.89;100.00;96096.38;1026950;28;20723;-71
2021/10/20 02:15:31;;;;;;;5.03;2.83;;;;;;;7.83;100.00;96089.50;1030820;28;20010;-71
2021/10/20 02:16:03;;;;;;;3.28;2.85;;;;;;;7.86;100.00;96096.84;1024241;28;20026;-71
2021/10/20 02:16:34;;;;;;;3.88;2.80;;;;;;;7.90;100.00;96095.34;1023696;28;20078;-71
2021/10/20 02:17:04;;;;;;;4.90;2.67;;;;;;;7.90;100.00;96085.69;1026586;28;20336;-71
2021/10/20 02:17:35;;;;;;;4.43;2.60;;;;;;;7.90;100.00;96092.75;1028922;28;20023;-71
2021/10/20 02:18:05;;;;;;;2.97;2.55;;;;;;;7.89;100.00;96088.56;1037804;28;20114;-71
2021/10/20 02:18:36;;;;;;;6.07;2.80;;;;;;;7.90;100.00;96093.53;1036684;28;20105;-71
2021/10/20 02:19:06;;;;;;;3.38;3.03;;;;;;;7.90;100.00;96088.31;1034913;28;20571;-71
2021/10/20 02:19:37;;;;;;;4.10;2.95;;;;;;;7.88;100.00;96086.94;1033176;28;20370;-70
2021/10/20 02:20:09;;;;;;;4.63;3.08;;;;;;;7.90;100.00;96096.13;1026593;28;20122;-71
2021/10/20 02:20:39;;;;;;;5.18;3.10;;;;;;;7.88;100.00;96087.75;1019546;28;20123;-71
2021/10/20 02:21:10;;;;;;;4.95;3.03;;;;;;;7.88;100.00;96081.72;1026574;28;20632;-70
2021/10/20 02:21:40;;;;;;;3.28;2.58;;;;;;;7.90;100.00;96090.13;1019319;28;20016;-72
2021/10/20 02:22:11;;;;;;;3.10;2.45;;;;;;;7.93;100.00;96089.66;1022684;28;20078;-71
2021/10/20 02:22:42;;;;;;;5.18;2.92;;;;;;;7.95;100.00;96092.84;1022727;29;20007;-71
2021/10/20 02:23:12;;;;;;;3.30;2.60;;;;;;;7.87;100.00;96074.91;1023087;28;20039;-71
2021/10/20 02:23:43;;;;;;;3.63;2.85;;;;;;;7.97;100.00;96090.75;1026575;28;20565;-71
2021/10/20 02:24:13;;;;;;;3.33;2.50;;;;;;;8.02;100.00;96083.03;1019045;29;20055;-71
2021/10/20 02:24:44;;;;;;;3.03;2.50;;;;;;;7.97;100.00;96072.47;1018973;29;20429;-71
2021/10/20 02:25:14;;;;;;;3.75;2.90;;;;;;;8.08;100.00;96082.06;1022570;29;20011;-70